Time;durP1;ratioP1;P1;durP2;ratioP2;P2;SDS_P1;SDS_P2;PMS_P1;PMS_P2;Temp;Humidity;BMP_temperature;BMP_pressure;BME280_temperature;BME280_humidity;BME280_pressure;Samples;Min_cycle;Max_cycle;Signal;HPM_P1;HPM_P2
2022/08/05 00:01:17;;;;;;;;;;;;;;;17.35;76.88;100409.63;1482447;88;20289;-84
2022/08/05 00:03:43;;;;;;;;;;;;;;;17.30;77.25;100411.23;1480154;88;21031;-84
2022/08/05 00:06:10;;;;;;;;;;;;;;;17.25;77.44;100406.95;1483407;88;20275;-84
2022/08/05 00:08:36;;;;;;;;;;;;;;;17.18;77.75;100403.41;1492295;87;21575;-84
2022/08/05 00:11:06;;;;;;;;;;;;;;;17.11;78.02;100404.14;1481262;88;20305;-84
2022/08/05 00:13:33;;;;;;;;;;;;;;;17.04;78.78;100413.95;1489314;88;20379;-84
2022/08/05 00:15:59;;;;;;;;;;;;;;;16.98;79.37;100406.70;1479073;88;21110;-83
2022/08/05 00:18:24;;;;;;;;;;;;;;;16.96;79.20;100405.23;1488025;88;20546;-84
2022/08/05 00:20:50;;;;;;;;;;;;;;;16.93;79.82;100401.60;1482907;88;20311;-84
2022/08/05 00:23:17;;;;;;;;;;;;;;;16.87;79.47;100397.84;1484282;88;20251;-84
2022/08/05 00:25:43;;;;;;;;;;;;;;;16.81;79.45;100396.75;1486154;87;20288;-84
2022/08/05 00:28:09;;;;;;;;;;;;;;;16.78;80.10;100396.31;1494448;87;20504;-84
2022/08/05 00:30:35;;;;;;;;;;;;;;;16.73;80.35;100404.02;1487298;88;20281;-84
2022/08/05 00:33:00;;;;;;;;;;;;;;;16.70;80.56;100394.53;1482894;88;20920;-84
2022/08/05 00:35:26;;;;;;;;;;;;;;;16.69;80.35;100396.39;1474643;88;20274;-84
2022/08/05 00:37:52;;;;;;;;;;;;;;;16.67;81.47;100397.08;1484373;87;20910;-83
2022/08/05 00:40:20;;;;;;;;;;;;;;;16.67;81.06;100399.75;1484777;88;20483;-83
2022/08/05 00:42:45;;;;;;;;;;;;;;;16.67;80.63;100394.41;1476049;88;20289;-84
2022/08/05 00:45:11;;;;;;;;;;;;;;;16.65;81.18;100403.11;1487976;88;20345;-83
2022/08/05 00:47:37;;;;;;;;;;;;;;;16.64;81.56;100401.97;1476997;87;20295;-84
2022/08/05 00:50:04;;;;;;;;;;;;;;;16.65;81.12;100395.09;1483116;87;20303;-83
2022/08/05 00:52:30;;;;;;;;;;;;;;;16.67;80.65;100402.42;1490058;87;20333;-84
2022/08/05 00:54:55;;;;;;;;;;;;;;;16.66;80.60;100395.43;1487698;87;20341;-83
2022/08/05 00:57:21;;;;;;;;;;;;;;;16.66;80.29;100399.44;1487113;87;20303;-83
2022/08/05 00:59:48;;;;;;;;;;;;;;;16.64;79.62;100393.44;1484042;87;20318;-84
2022/08/05 01:02:14;;;;;;;;;;;;;;;16.64;79.16;100396.11;1498606;87;20260;-83
2022/08/05 01:04:40;;;;;;;;;;;;;;;16.63;79.42;100396.29;1483268;87;20231;-83
2022/08/05 01:07:06;;;;;;;;;;;;;;;16.60;79.16;100393.52;1491319;87;20296;-83
2022/08/05 01:09:31;;;;;;;;;;;;;;;16.58;79.85;100388.86;1490533;87;20274;-83
2022/08/05 01:12:00;;;;;;;;;;;;;;;16.58;79.05;100396.87;1495608;87;20274;-84
2022/08/05 01:14:28;;;;;;;;;;;;;;;16.56;80.00;100391.39;1492417;87;20973;-83
2022/08/05 01:17:04;;;;;;;;;;;;;;;16.53;80.98;100384.58;1459724;87;20407;-84
2022/08/05 01:19:39;;;;;;;;;;;;;;;16.50;80.17;100386.28;1494487;87;20385;-83
2022/08/05 01:22:27;;;;;;;;;;;;;;;16.47;79.21;100385.33;1491100;87;21673;-84
2022/08/05 01:25:02;;;;;;;;;;;;;;;16.44;80.35;100381.70;1488118;87;20773;-84
2022/08/05 01:27:50;;;;;;;;;;;;;;;16.40;80.50;100379.91;1485237;87;20333;-83
2022/08/05 01:30:16;;;;;;;;;;;;;;;16.37;80.46;100378.95;1484938;87;20288;-81
2022/08/05 01:32:44;;;;;;;;;;;;;;;16.36;81.30;100381.80;1488233;87;20275;-81
2022/08/05 01:35:13;;;;;;;;;;;;;;;16.30;81.89;100375.87;1481015;87;21162;-81
2022/08/05 01:37:42;;;;;;;;;;;;;;;16.28;81.23;100382.72;1480629;87;20253;-80
2022/08/05 01:40:09;;;;;;;;;;;;;;;16.25;81.67;100384.42;1498361;87;20303;-81
2022/08/05 01:42:36;;;;;;;;;;;;;;;16.23;81.41;100383.80;1489581;87;20389;-81
2022/08/05 01:45:05;;;;;;;;;;;;;;;16.19;82.25;100386.50;1487577;87;20401;-81
2022/08/05 01:47:33;;;;;;;;;;;;;;;16.16;82.60;100387.70;1488987;87;20303;-81
2022/08/05 01:50:00;;;;;;;;;;;;;;;16.14;82.75;100384.41;1488912;87;20289;-81
2022/08/05 01:52:27;;;;;;;;;;;;;;;16.11;83.24;100382.59;1485862;87;20913;-80
2022/08/05 01:54:57;;;;;;;;;;;;;;;16.05;83.83;100385.49;1480364;87;20288;-81
2022/08/05 01:57:26;;;;;;;;;;;;;;;16.01;84.46;100377.55;1491774;86;20281;-81
2022/08/05 01:59:53;;;;;;;;;;;;;;;16.01;83.41;100386.88;1493689;87;20958;-81
2022/08/05 02:02:20;;;;;;;;;;;;;;;16.00;83.80;100386.06;1477201;86;20282;-81
2022/08/05 02:04:47;;;;;;;;;;;;;;;16.00;84.43;100383.39;1484638;87;20459;-81
2022/08/05 02:07:13;;;;;;;;;;;;;;;16.00;84.39;100387.91;1488558;86;20296;-81
2022/08/05 02:09:39;;;;;;;;;;;;;;;15.99;83.96;100382.23;1495572;87;20868;-81
2022/08/05 02:12:12;;;;;;;;;;;;;;;15.97;84.23;100382.94;1487171;86;20282;-81
2022/08/05 02:14:44;;;;;;;;;;;;;;;15.97;83.76;100382.94;1493617;86;20222;-81
2022/08/05 02:17:13;;;;;;;;;;;;;;;15.97;83.49;100378.94;1488977;87;20280;-80
2022/08/05 02:19:44;;;;;;;;;;;;;;;15.98;83.30;100374.73;1477712;87;20303;-81
2022/08/05 02:22:29;;;;;;;;;;;;;;;15.98;82.38;100377.40;1489889;87;20348;-81
2022/08/05 02:24:59;;;;;;;;;;;;;;;16.00;81.40;100374.56;1489831;87;20393;-81
2022/08/05 02:27:24;;;;;;;;;;;;;;;15.98;81.94;100368.57;1484182;87;20415;-81
2022/08/05 02:29:52;;;;;;;;;;;;;;;15.94;81.62;100368.12;1486363;87;20238;-81
2022/08/05 02:32:20;;;;;;;;;;;;;;;15.89;81.70;100371.02;1489274;86;20286;-81
2022/08/05 02:34:46;;;;;;;;;;;;;;;15.89;81.48;100375.02;1480606;87;20325;-81
2022/08/05 02:37:13;;;;;;;;;;;;;;;15.86;81.28;100375.38;1479026;87;20304;-81
2022/08/05 02:39:41;;;;;;;;;;;;;;;15.76;82.98;100373.79;1485411;86;20296;-81
2022/08/05 02:42:08;;;;;;;;;;;;;;;15.69;83.23;100372.05;1488835;87;20282;-81
2022/08/05 02:44:37;;;;;;;;;;;;;;;15.62;83.28;100371.90;1493540;87;20281;-81
2022/08/05 02:47:06;;;;;;;;;;;;;;;15.56;83.55;100368.15;1484639;87;20289;-81
2022/08/05 02:49:35;;;;;;;;;;;;;;;15.50;83.78;100369.36;1484997;87;20392;-81
2022/08/05 02:52:01;;;;;;;;;;;;;;;15.44;85.18;100367.42;1497957;86;20371;-83
2022/08/05 02:54:28;;;;;;;;;;;;;;;15.42;85.94;100368.09;1483701;87;20425;-83
2022/08/05 02:56:54;;;;;;;;;;;;;;;15.43;85.92;100368.44;1495043;87;20327;-83
2022/08/05 02:59:21;;;;;;;;;;;;;;;15.46;85.24;100372.90;1492163;87;20281;-83
2022/08/05 03:01:50;;;;;;;;;;;;;;;15.46;85.73;100372.08;1492970;87;20348;-83
2022/08/05 03:04:17;;;;;;;;;;;;;;;15.47;85.22;100368.39;1487291;87;20318;-83
2022/08/05 03:06:43;;;;;;;;;;;;;;;15.48;84.83;100377.55;1487200;87;20252;-83
2022/08/05 03:09:12;;;;;;;;;;;;;;;15.47;83.88;100374.55;1483172;87;20311;-83
2022/08/05 03:11:41;;;;;;;;;;;;;;;15.44;83.79;100370.08;1490052;87;20288;-83
2022/08/05 03:14:07;;;;;;;;;;;;;;;15.38;83.80;100365.48;1487808;87;20339;-83
2022/08/05 03:16:33;;;;;;;;;;;;;;;15.31;84.02;100360.05;1487314;87;20847;-83
2022/08/05 03:19:00;;;;;;;;;;;;;;;15.26;84.33;100363.23;1490344;87;20231;-83
2022/08/05 03:21:26;;;;;;;;;;;;;;;15.25;84.01;100362.10;1495385;87;20349;-83
2022/08/05 03:23:53;;;;;;;;;;;;;;;15.22;84.80;100369.09;1492250;87;20906;-83
2022/08/05 03:26:18;;;;;;;;;;;;;;;15.19;84.98;100362.31;1481373;87;20452;-83
2022/08/05 03:28:45;;;;;;;;;;;;;;;15.16;85.62;100362.64;1489713;87;20325;-83
2022/08/05 03:31:11;;;;;;;;;;;;;;;15.18;84.29;100361.97;1481683;87;20274;-83
2022/08/05 03:33:37;;;;;;;;;;;;;;;15.20;83.69;100361.80;1487237;87;20388;-83
2022/08/05 03:36:04;;;;;;;;;;;;;;;15.22;84.42;100362.43;1478856;87;20318;-83
2022/08/05 03:38:30;;;;;;;;;;;;;;;15.21;84.86;100361.61;1484938;87;20325;-83
2022/08/05 03:40:56;;;;;;;;;;;;;;;15.17;85.08;100362.98;1490166;87;20957;-83
2022/08/05 03:43:25;;;;;;;;;;;;;;;15.17;85.81;100365.66;1478959;87;20281;-83
2022/08/05 03:45:53;;;;;;;;;;;;;;;15.18;84.99;100361.14;1483133;87;20237;-83
2022/08/05 03:48:20;;;;;;;;;;;;;;;15.19;85.67;100367.64;1488211;87;20311;-83
2022/08/05 03:51:04;;;;;;;;;;;;;;;15.19;84.68;100366.31;1486438;87;20920;-83
2022/08/05 03:53:34;;;;;;;;;;;;;;;15.21;85.84;100363.45;1496067;87;20274;-83
2022/08/05 03:56:04;;;;;;;;;;;;;;;15.21;85.45;100366.12;1489505;87;20349;-83
2022/08/05 03:58:32;;;;;;;;;;;;;;;15.21;84.69;100364.27;1468627;87;20899;-83
2022/08/05 04:01:00;;;;;;;;;;;;;;;15.25;85.18;100367.43;1484801;87;20736;-83
2022/08/05 04:03:27;;;;;;;;;;;;;;;15.28;85.41;100368.41;1490878;87;20891;-83
2022/08/05 04:05:54;;;;;;;;;;;;;;;15.32;86.15;100369.18;1489893;87;20355;-83
2022/08/05 04:08:20;;;;;;;;;;;;;;;15.37;85.86;100371.83;1495551;87;21045;-83
2022/08/05 04:10:46;;;;;;;;;;;;;;;15.39;88.09;100368.45;1490586;87;20364;-83
2022/08/05 04:13:12;;;;;;;;;;;;;;;15.44;87.35;100370.08;1495229;87;20295;-83
2022/08/05 04:15:38;;;;;;;;;;;;;;;15.53;86.42;100372.99;1485255;87;21533;-83
2022/08/05 04:18:05;;;;;;;;;;;;;;;15.65;85.92;100374.71;1488618;87;20252;-83
2022/08/05 04:20:31;;;;;;;;;;;;;;;15.74;85.43;100375.83;1490429;87;20363;-83
2022/08/05 04:22:56;;;;;;;;;;;;;;;15.87;84.56;100374.36;1492354;87;20281;-83
2022/08/05 04:25:23;;;;;;;;;;;;;;;16.00;84.21;100381.23;1492883;87;20289;-83
2022/08/05 04:27:48;;;;;;;;;;;;;;;16.14;84.12;100376.88;1484868;87;20893;-83
2022/08/05 04:30:14;;;;;;;;;;;;;;;16.27;84.16;100375.73;1486021;87;20348;-83
2022/08/05 04:32:40;;;;;;;;;;;;;;;16.43;84.42;100370.19;1486077;87;20296;-83
2022/08/05 04:35:07;;;;;;;;;;;;;;;16.57;83.59;100373.85;1492183;87;20802;-83
2022/08/05 04:37:33;;;;;;;;;;;;;;;16.72;83.07;100371.65;1485427;87;20421;-83
2022/08/05 04:39:59;;;;;;;;;;;;;;;16.84;82.70;100369.64;1485303;87;20231;-83
2022/08/05 04:42:24;;;;;;;;;;;;;;;16.96;82.12;100372.64;1482178;87;20304;-83
2022/08/05 04:44:50;;;;;;;;;;;;;;;17.05;81.96;100370.15;1484658;87;20289;-83
2022/08/05 04:47:16;;;;;;;;;;;;;;;17.17;81.75;100373.66;1490075;87;20803;-83
2022/08/05 04:49:42;;;;;;;;;;;;;;;17.27;80.94;100371.48;1484976;87;20274;-83
2022/08/05 04:52:08;;;;;;;;;;;;;;;17.36;80.59;100371.66;1484325;87;20545;-83
2022/08/05 04:54:34;;;;;;;;;;;;;;;17.44;80.23;100374.72;1491704;88;20281;-83
2022/08/05 04:57:00;;;;;;;;;;;;;;;17.53;79.78;100366.86;1476144;87;20264;-83
2022/08/05 04:59:26;;;;;;;;;;;;;;;17.62;79.66;100371.56;1486831;87;20281;-83
2022/08/05 05:01:52;;;;;;;;;;;;;;;17.72;79.39;100374.70;1485993;87;20370;-83
2022/08/05 05:04:17;;;;;;;;;;;;;;;17.82;79.64;100373.89;1487179;87;20459;-83
2022/08/05 05:06:43;;;;;;;;;;;;;;;17.91;79.23;100364.67;1485100;87;20193;-83
2022/08/05 05:09:10;;;;;;;;;;;;;;;18.01;78.88;100362.96;1489585;88;20260;-83
2022/08/05 05:11:36;;;;;;;;;;;;;;;18.09;79.40;100363.32;1484340;87;20372;-83
2022/08/05 05:14:02;;;;;;;;;;;;;;;18.17;79.19;100365.32;1480606;88;20278;-83
2022/08/05 05:16:29;;;;;;;;;;;;;;;18.28;78.90;100357.23;1485194;88;20245;-83
2022/08/05 05:18:55;;;;;;;;;;;;;;;18.38;78.96;100359.02;1484992;88;20274;-83
2022/08/05 05:21:20;;;;;;;;;;;;;;;18.49;78.72;100354.42;1494479;88;20340;-83
2022/08/05 05:23:46;;;;;;;;;;;;;;;18.64;78.83;100360.13;1481291;88;20333;-83
2022/08/05 05:26:12;;;;;;;;;;;;;;;18.78;78.78;100357.83;1487615;88;20266;-83
2022/08/05 05:28:38;;;;;;;;;;;;;;;18.93;78.29;100365.69;1488807;88;20451;-84
2022/08/05 05:31:04;;;;;;;;;;;;;;;19.11;77.86;100362.44;1487707;87;20320;-84
2022/08/05 05:33:30;;;;;;;;;;;;;;;19.30;77.30;100367.48;1485200;87;20399;-84
2022/08/05 05:35:56;;;;;;;;;;;;;;;19.44;76.98;100362.95;1482693;88;20297;-84
2022/08/05 05:38:21;;;;;;;;;;;;;;;19.60;76.58;100367.91;1476050;88;20290;-84
2022/08/05 05:40:47;;;;;;;;;;;;;;;19.74;74.79;100362.86;1488631;88;20341;-84
2022/08/05 05:43:13;;;;;;;;;;;;;;;19.90;74.23;100368.80;1492734;88;20288;-83
2022/08/05 05:45:39;;;;;;;;;;;;;;;20.03;73.30;100372.29;1481562;87;20332;-84
2022/08/05 05:48:06;;;;;;;;;;;;;;;20.18;72.91;100372.03;1478379;88;20386;-84
2022/08/05 05:50:33;;;;;;;;;;;;;;;20.36;73.13;100370.00;1483132;88;20389;-84
2022/08/05 05:52:59;;;;;;;;;;;;;;;20.47;71.10;100370.67;1475019;88;20400;-83
2022/08/05 05:55:24;;;;;;;;;;;;;;;20.60;70.10;100368.48;1481258;88;20416;-84
2022/08/05 05:57:50;;;;;;;;;;;;;;;20.77;70.47;100372.00;1485296;87;20238;-84
2022/08/05 06:00:18;;;;;;;;;;;;;;;20.94;68.76;100373.13;1478081;87;20274;-83
2022/08/05 06:02:45;;;;;;;;;;;;;;;21.08;68.76;100362.58;1487825;88;20438;-84
2022/08/05 06:05:12;;;;;;;;;;;;;;;21.27;69.00;100362.66;1489104;87;20372;-84
2022/08/05 06:07:38;;;;;;;;;;;;;;;21.48;68.24;100369.03;1480727;87;20934;-84
2022/08/05 06:10:06;;;;;;;;;;;;;;;21.68;68.34;100366.68;1482762;87;20281;-84
2022/08/05 06:12:33;;;;;;;;;;;;;;;21.86;67.64;100371.55;1476782;87;20802;-84
2022/08/05 06:15:00;;;;;;;;;;;;;;;22.01;65.82;100370.36;1484737;88;21111;-84
2022/08/05 06:17:26;;;;;;;;;;;;;;;22.20;66.62;100371.23;1481244;88;20296;-84
2022/08/05 06:19:52;;;;;;;;;;;;;;;22.37;66.92;100374.95;1486380;88;20297;-84
2022/08/05 06:22:24;;;;;;;;;;;;;;;22.55;64.93;100373.28;1487038;88;20245;-84
2022/08/05 06:24:50;;;;;;;;;;;;;;;22.59;62.38;100373.95;1474094;87;20288;-84
2022/08/05 06:27:16;;;;;;;;;;;;;;;22.75;64.10;100372.48;1484334;87;20377;-84
2022/08/05 06:29:41;;;;;;;;;;;;;;;22.93;63.91;100375.14;1489067;87;21580;-84
2022/08/05 06:32:08;;;;;;;;;;;;;;;23.02;61.63;100377.02;1484970;87;20497;-84
2022/08/05 06:34:34;;;;;;;;;;;;;;;23.13;60.63;100384.83;1487830;87;20289;-84
2022/08/05 06:37:00;;;;;;;;;;;;;;;23.26;61.95;100390.03;1496237;87;20237;-84
2022/08/05 06:39:26;;;;;;;;;;;;;;;23.39;62.01;100376.32;1479486;88;20372;-84
2022/08/05 06:41:52;;;;;;;;;;;;;;;23.52;59.92;100373.09;1489865;88;20385;-84
2022/08/05 06:44:18;;;;;;;;;;;;;;;23.63;59.72;100381.20;1485751;88;20296;-84
2022/08/05 06:46:44;;;;;;;;;;;;;;;23.75;58.84;100385.28;1475802;88;20229;-84
2022/08/05 06:49:10;;;;;;;;;;;;;;;23.85;58.82;100382.82;1491971;88;20965;-83
2022/08/05 06:51:36;;;;;;;;;;;;;;;23.98;58.76;100374.98;1482256;88;20295;-82
2022/08/05 06:54:03;;;;;;;;;;;;;;;24.15;57.91;100378.31;1483565;88;20907;-84
2022/08/05 06:56:30;;;;;;;;;;;;;;;24.16;56.26;100383.46;1483216;88;20297;-84
2022/08/05 06:58:56;;;;;;;;;;;;;;;24.24;56.13;100383.09;1480427;87;20530;-84
2022/08/05 07:01:22;;;;;;;;;;;;;;;24.35;56.96;100386.02;1483788;87;20297;-84
2022/08/05 07:03:48;;;;;;;;;;;;;;;24.42;56.34;100387.51;1485514;87;20334;-84
2022/08/05 07:06:17;;;;;;;;;;;;;;;24.49;57.20;100384.72;1484206;87;20928;-84
2022/08/05 07:08:44;;;;;;;;;;;;;;;24.59;56.85;100393.55;1489266;87;20303;-84
2022/08/05 07:11:10;;;;;;;;;;;;;;;24.64;55.96;100391.77;1487311;87;20334;-83
2022/08/05 07:19:06;;;;;;;;;;;;;;;25.02;55.79;100378.11;1482750;87;20281;-84
2022/08/05 07:21:31;;;;;;;;;;;;;;;25.15;55.86;100384.60;1485550;87;20288;-83
2022/08/05 07:23:57;;;;;;;;;;;;;;;25.23;54.81;100379.83;1493585;88;20743;-83
2022/08/05 07:26:23;;;;;;;;;;;;;;;25.27;54.91;100383.71;1478856;87;20274;-83
2022/08/05 07:28:49;;;;;;;;;;;;;;;25.42;53.66;100383.41;1495986;88;20289;-83
2022/08/05 07:31:16;;;;;;;;;;;;;;;25.57;55.27;100377.39;1488334;88;20295;-83
2022/08/05 07:33:42;;;;;;;;;;;;;;;25.65;52.18;100382.41;1484813;88;20736;-83
2022/08/05 07:36:09;;;;;;;;;;;;;;;25.80;52.03;100380.98;1488908;88;20296;-83
2022/08/05 07:38:36;;;;;;;;;;;;;;;25.95;52.22;100378.54;1484571;88;20296;-83
2022/08/05 07:41:08;;;;;;;;;;;;;;;26.14;53.65;100376.87;1486931;88;21096;-84
2022/08/05 07:43:34;;;;;;;;;;;;;;;26.20;49.87;100373.14;1487666;87;20951;-83
2022/08/05 07:46:00;;;;;;;;;;;;;;;26.37;50.54;100373.89;1481360;88;20318;-84
2022/08/05 07:48:26;;;;;;;;;;;;;;;26.42;50.24;100371.25;1489427;87;20245;-83
2022/08/05 07:50:51;;;;;;;;;;;;;;;26.53;50.19;100371.67;1484769;87;20819;-84
2022/08/05 07:53:17;;;;;;;;;;;;;;;26.59;48.27;100377.98;1479306;86;20303;-84
2022/08/05 07:55:45;;;;;;;;;;;;;;;26.72;48.65;100364.53;1483990;87;20289;-83
2022/08/05 07:58:11;;;;;;;;;;;;;;;26.78;47.13;100373.00;1480940;87;20252;-84
2022/08/05 08:00:37;;;;;;;;;;;;;;;26.98;49.49;100366.41;1489882;87;20849;-84
2022/08/05 08:03:05;;;;;;;;;;;;;;;27.16;49.26;100367.97;1493717;87;20348;-83
2022/08/05 08:05:30;;;;;;;;;;;;;;;27.27;47.94;100367.50;1490028;87;20342;-84
2022/08/05 08:07:57;;;;;;;;;;;;;;;27.39;46.65;100368.67;1488955;87;20939;-84
2022/08/05 08:10:23;;;;;;;;;;;;;;;27.58;46.18;100365.01;1495761;87;20289;-84
2022/08/05 08:12:49;;;;;;;;;;;;;;;27.59;44.49;100368.84;1494061;87;20802;-83
2022/08/05 08:15:15;;;;;;;;;;;;;;;27.73;45.24;100366.45;1487429;87;20289;-84
2022/08/05 08:17:43;;;;;;;;;;;;;;;27.72;44.17;100364.83;1483115;87;20458;-84
2022/08/05 08:20:09;;;;;;;;;;;;;;;27.96;46.63;100357.63;1490888;87;20326;-83
2022/08/05 08:22:35;;;;;;;;;;;;;;;28.13;46.13;100360.98;1484292;87;20354;-83
2022/08/05 08:25:01;;;;;;;;;;;;;;;28.17;43.57;100360.73;1489366;87;20274;-84
2022/08/05 08:27:27;;;;;;;;;;;;;;;28.37;44.20;100360.52;1490676;87;20325;-84
2022/08/05 08:29:53;;;;;;;;;;;;;;;28.46;44.65;100351.61;1481629;87;20853;-84
2022/08/05 08:32:19;;;;;;;;;;;;;;;28.50;41.76;100358.14;1488830;87;20297;-84
2022/08/05 08:34:45;;;;;;;;;;;;;;;28.56;42.77;100354.89;1481165;87;20333;-84
2022/08/05 08:37:11;;;;;;;;;;;;;;;28.66;41.93;100352.20;1489109;87;20281;-84
2022/08/05 08:39:37;;;;;;;;;;;;;;;28.73;40.59;100366.36;1488087;87;21075;-84
2022/08/05 08:42:04;;;;;;;;;;;;;;;28.92;43.15;100364.50;1490496;87;20245;-84
2022/08/05 08:44:32;;;;;;;;;;;;;;;28.96;41.16;100358.22;1486433;87;20334;-84
2022/08/05 08:46:59;;;;;;;;;;;;;;;29.17;42.09;100358.25;1487993;87;20302;-84
2022/08/05 08:49:28;;;;;;;;;;;;;;;29.22;40.01;100353.61;1486123;87;20906;-84
2022/08/05 08:52:00;;;;;;;;;;;;;;;29.30;40.37;100355.53;1484073;87;20743;-84
2022/08/05 08:54:26;;;;;;;;;;;;;;;29.43;38.97;100357.16;1488064;86;20774;-84
2022/08/05 08:56:53;;;;;;;;;;;;;;;29.43;38.26;100354.44;1485021;87;20245;-83
2022/08/05 08:59:19;;;;;;;;;;;;;;;29.62;38.78;100353.32;1487996;86;20795;-84
2022/08/05 09:01:46;;;;;;;;;;;;;;;29.68;38.46;100353.58;1488643;86;20333;-84
2022/08/05 09:04:12;;;;;;;;;;;;;;;29.68;37.36;100340.49;1485634;87;20840;-84
2022/08/05 09:06:39;;;;;;;;;;;;;;;29.84;38.80;100337.19;1486781;86;20303;-84
2022/08/05 09:09:04;;;;;;;;;;;;;;;29.93;37.55;100338.23;1484062;86;20333;-84
2022/08/05 09:11:35;;;;;;;;;;;;;;;30.18;38.20;100331.02;1493097;87;20253;-84
2022/08/05 09:14:02;;;;;;;;;;;;;;;30.27;36.27;100330.20;1489724;87;20523;-83
2022/08/05 09:16:27;;;;;;;;;;;;;;;30.27;34.77;100329.39;1491421;87;20303;-84
2022/08/05 09:18:53;;;;;;;;;;;;;;;30.39;35.24;100320.86;1488596;87;21003;-84
2022/08/05 09:21:21;;;;;;;;;;;;;;;30.52;35.54;100321.03;1485390;86;20282;-84
2022/08/05 09:23:50;;;;;;;;;;;;;;;30.71;35.68;100319.01;1478892;86;20303;-84
2022/08/05 09:26:18;;;;;;;;;;;;;;;30.91;37.10;100314.78;1484353;87;20260;-84
2022/08/05 09:28:46;;;;;;;;;;;;;;;31.03;35.16;100319.31;1493509;87;20348;-84
2022/08/05 09:31:14;;;;;;;;;;;;;;;31.17;35.29;100313.19;1495935;87;20567;-84
2022/08/05 09:33:51;;;;;;;;;;;;;;;31.40;36.55;100308.34;1492230;87;20297;-84
2022/08/05 09:36:18;;;;;;;;;;;;;;;31.46;32.01;100307.73;1479746;86;20252;-85
2022/08/05 09:38:58;;;;;;;;;;;;;;;31.53;30.95;100306.82;1486148;86;20318;-84
2022/08/05 09:41:24;;;;;;;;;;;;;;;31.67;33.40;100303.66;1488653;87;20251;-84
2022/08/05 09:43:50;;;;;;;;;;;;;;;31.69;32.61;100299.27;1485019;87;20282;-85
2022/08/05 09:46:31;;;;;;;;;;;;;;;31.86;34.75;100305.64;1487892;86;20304;-84
2022/08/05 09:49:06;;;;;;;;;;;;;;;31.98;34.72;100302.51;1491873;87;20415;-84
2022/08/05 09:51:35;;;;;;;;;;;;;;;32.15;31.85;100300.09;1486262;87;20326;-84
2022/08/05 09:54:03;;;;;;;;;;;;;;;32.24;33.31;100301.05;1485325;87;20238;-84
2022/08/05 09:56:33;;;;;;;;;;;;;;;32.30;32.44;100298.49;1479352;87;20300;-84
2022/08/05 09:59:00;;;;;;;;;;;;;;;32.40;32.65;100300.29;1493700;86;20430;-84
2022/08/05 10:01:27;;;;;;;;;;;;;;;32.30;30.70;100297.69;1481213;86;20804;-84
2022/08/05 10:03:59;;;;;;;;;;;;;;;32.45;31.49;100295.27;1488001;86;20415;-84
2022/08/05 10:06:29;;;;;;;;;;;;;;;32.31;30.14;100296.03;1488595;87;20303;-84
2022/08/05 10:08:57;;;;;;;;;;;;;;;32.31;30.30;100293.83;1483720;87;20386;-84
2022/08/05 10:11:23;;;;;;;;;;;;;;;32.44;30.90;100302.68;1483147;86;20341;-84
2022/08/05 10:13:50;;;;;;;;;;;;;;;32.30;28.87;100291.64;1493537;86;20349;-84
2022/08/05 10:16:34;;;;;;;;;;;;;;;32.48;30.55;100288.67;1488702;86;20289;-84
2022/08/05 10:19:01;;;;;;;;;;;;;;;32.61;31.71;100291.78;1480606;87;20297;-84
2022/08/05 10:21:27;;;;;;;;;;;;;;;32.65;29.56;100288.13;1492215;87;20438;-83
2022/08/05 10:23:54;;;;;;;;;;;;;;;32.78;31.17;100281.91;1493412;87;20356;-84
2022/08/05 10:26:20;;;;;;;;;;;;;;;32.87;28.93;100283.96;1489939;87;20223;-84
2022/08/05 10:28:46;;;;;;;;;;;;;;;32.90;28.26;100275.95;1487629;86;20760;-84
2022/08/05 10:31:15;;;;;;;;;;;;;;;33.04;29.76;100274.64;1478011;86;20298;-84
2022/08/05 10:33:41;;;;;;;;;;;;;;;33.11;28.55;100274.24;1485823;87;20318;-84
2022/08/05 10:36:07;;;;;;;;;;;;;;;33.23;29.09;100269.91;1484490;86;20237;-84
2022/08/05 10:38:35;;;;;;;;;;;;;;;33.18;28.94;100267.82;1485650;86;20282;-84
2022/08/05 10:41:22;;;;;;;;;;;;;;;33.26;29.37;100260.23;1486500;87;20854;-84
2022/08/05 10:44:01;;;;;;;;;;;;;;;33.30;28.89;100257.16;1489322;87;20861;-84
2022/08/05 10:46:49;;;;;;;;;;;;;;;33.35;28.84;100252.15;1479131;86;20341;-84
2022/08/05 10:49:15;;;;;;;;;;;;;;;33.44;29.88;100252.50;1485867;87;20862;-84
2022/08/05 10:51:46;;;;;;;;;;;;;;;33.43;28.93;100240.44;1482150;87;20266;-84
2022/08/05 10:54:13;;;;;;;;;;;;;;;33.45;28.05;100238.22;1483676;87;20303;-84
2022/08/05 10:56:49;;;;;;;;;;;;;;;33.44;27.34;100238.78;1477785;87;20274;-83
2022/08/05 10:59:19;;;;;;;;;;;;;;;33.40;27.17;100247.91;1499210;87;20341;-84
2022/08/05 11:01:45;;;;;;;;;;;;;;;33.36;27.55;100242.23;1456090;88;20797;-84
2022/08/05 11:04:22;;;;;;;;;;;;;;;33.29;26.20;100246.48;1458117;89;20292;-84
2022/08/05 11:07:03;;;;;;;;;;;;;;;33.48;28.61;100234.30;1465827;88;20278;-84
2022/08/05 11:09:48;;;;;;;;;;;;;;;33.53;27.36;100236.16;1459815;87;20298;-84
2022/08/05 11:12:41;;;;;;;;;;;;;;;33.79;27.11;100237.00;1448587;90;20874;-84
2022/08/05 11:15:08;;;;;;;;;;;;;;;33.92;26.24;100234.77;1438582;90;20308;-84
2022/08/05 11:17:37;;;;;;;;;;;;;;;34.13;27.51;100231.86;1444169;90;20829;-84
2022/08/05 11:20:04;;;;;;;;;;;;;;;34.09;24.83;100230.84;1430449;90;20777;-84
2022/08/05 11:22:42;;;;;;;;;;;;;;;34.03;24.38;100236.17;1445294;90;20219;-84
2022/08/05 11:25:29;;;;;;;;;;;;;;;34.11;24.92;100236.84;1452431;90;20410;-85
2022/08/05 11:27:56;;;;;;;;;;;;;;;34.14;24.69;100236.79;1455139;90;20408;-85
2022/08/05 11:30:22;;;;;;;;;;;;;;;33.89;23.82;100232.64;1450367;90;20385;-84
2022/08/05 11:32:48;;;;;;;;;;;;;;;33.81;24.62;100233.40;1454829;90;20286;-84
2022/08/05 11:35:52;;;;;;;;;;;;;;;33.98;25.37;100236.84;1446176;90;20235;-84
2022/08/05 11:38:18;;;;;;;;;;;;;;;34.13;26.04;100232.43;1440476;90;20376;-83
2022/08/05 11:41:00;;;;;;;;;;;;;;;34.29;25.71;100231.49;1452856;90;20322;-84
2022/08/05 11:43:26;;;;;;;;;;;;;;;34.38;26.38;100228.25;1449979;90;20389;-85
2022/08/05 11:45:52;;;;;;;;;;;;;;;34.37;25.44;100229.38;1449395;90;20300;-85
2022/08/05 11:48:18;;;;;;;;;;;;;;;34.31;24.68;100224.57;1450283;90;20777;-85
2022/08/05 11:50:46;;;;;;;;;;;;;;;34.30;25.95;100229.02;1452885;90;20322;-85
2022/08/05 11:53:12;;;;;;;;;;;;;;;34.37;26.30;100226.63;1426976;90;20293;-85
2022/08/05 11:55:56;;;;;;;;;;;;;;;34.52;26.44;100232.31;1450254;90;20352;-85
2022/08/05 11:58:38;;;;;;;;;;;;;;;34.67;26.51;100229.77;1454359;90;20353;-85
2022/08/05 12:01:06;;;;;;;;;;;;;;;34.75;25.30;100233.94;1452128;89;20330;-85
2022/08/05 12:03:52;;;;;;;;;;;;;;;34.70;24.63;100226.39;1453886;89;20798;-85
2022/08/05 12:06:21;;;;;;;;;;;;;;;34.83;25.30;100221.38;1456745;90;20345;-85
2022/08/05 12:08:50;;;;;;;;;;;;;;;34.84;26.46;100220.24;1449778;89;20285;-85
2022/08/05 12:11:19;;;;;;;;;;;;;;;34.92;25.34;100223.61;1450676;89;20939;-85
2022/08/05 12:14:07;;;;;;;;;;;;;;;34.65;23.36;100219.67;1456889;90;20432;-85
2022/08/05 12:16:35;;;;;;;;;;;;;;;34.79;25.77;100221.78;1462998;89;20300;-85
2022/08/05 12:19:03;;;;;;;;;;;;;;;34.91;25.33;100217.88;1448304;90;20293;-85
2022/08/05 12:21:31;;;;;;;;;;;;;;;35.07;25.95;100216.10;1459619;89;20389;-85
2022/08/05 12:24:06;;;;;;;;;;;;;;;34.83;23.60;100218.63;1452936;90;20286;-85
2022/08/05 12:26:41;;;;;;;;;;;;;;;34.55;24.27;100217.41;1454454;89;20378;-85
2022/08/05 12:29:17;;;;;;;;;;;;;;;34.62;25.47;100210.69;1455303;90;20405;-85
2022/08/05 12:31:53;;;;;;;;;;;;;;;34.54;24.12;100208.89;1448118;89;20234;-84
2022/08/05 12:34:22;;;;;;;;;;;;;;;34.52;25.37;100207.58;1448891;89;20326;-85
2022/08/05 12:36:51;;;;;;;;;;;;;;;34.65;25.28;100208.68;1446697;89;20271;-85
2022/08/05 12:39:17;;;;;;;;;;;;;;;34.66;24.38;100201.48;1452853;90;20263;-85
2022/08/05 12:41:44;;;;;;;;;;;;;;;34.68;25.27;100192.94;1461755;90;20785;-85
2022/08/05 12:44:11;;;;;;;;;;;;;;;34.72;24.77;100196.66;1438752;90;20212;-85
2022/08/05 12:46:39;;;;;;;;;;;;;;;34.77;24.47;100197.91;1459905;90;20485;-85